createdAt,value
2019-03-22T00:00:38.385Z,2.20
2019-03-22T00:03:06.250Z,2.80
2019-03-22T00:05:53.153Z,2.60
2019-03-22T00:08:40.576Z,4.20
2019-03-22T00:11:27.357Z,2.30
2019-03-22T00:14:14.191Z,2.10
2019-03-22T00:17:01.466Z,3.80
2019-03-22T00:19:48.199Z,2.20
2019-03-22T00:22:35.021Z,2.10
2019-03-22T00:25:21.991Z,2.30
2019-03-22T00:31:03.437Z,3.80
2019-03-22T00:33:50.566Z,2.00
2019-03-22T00:36:18.197Z,4.00
2019-03-22T00:39:05.240Z,1.90
2019-03-22T00:41:52.122Z,1.80
2019-03-22T00:44:39.067Z,2.00
2019-03-22T00:47:25.837Z,1.10
2019-03-22T00:50:12.935Z,1.70
2019-03-22T00:52:40.633Z,1.60
2019-03-22T00:55:27.662Z,1.60
2019-03-22T00:58:14.658Z,1.50
2019-03-22T01:01:01.777Z,1.80
2019-03-22T01:03:29.175Z,2.80
2019-03-22T01:06:15.953Z,1.50
2019-03-22T01:12:11.542Z,1.40
2019-03-22T01:14:58.309Z,0.50
2019-03-22T01:17:45.178Z,1.10
2019-03-22T01:20:32.497Z,1.20
2019-03-22T01:23:19.629Z,1.30
2019-03-22T01:26:06.733Z,0.80
2019-03-22T01:28:54.093Z,0.70
2019-03-22T01:31:40.885Z,0.30
2019-03-22T01:34:27.772Z,1.30
2019-03-22T01:37:14.976Z,1.00
2019-03-22T01:40:02.226Z,1.30
2019-03-22T01:42:49.336Z,1.50
2019-03-22T01:45:36.192Z,0.80
2019-03-22T01:48:03.756Z,1.50
2019-03-22T01:50:50.803Z,1.20
2019-03-22T01:53:37.689Z,1.30
2019-03-22T01:56:24.768Z,0.70
2019-03-22T01:59:11.702Z,1.20
2019-03-22T02:01:58.669Z,0.40
2019-03-22T02:04:45.517Z,0.70
2019-03-22T02:07:32.489Z,0.80
2019-03-22T02:10:19.309Z,1.60
2019-03-22T02:12:46.934Z,2.30
2019-03-22T02:15:33.789Z,0.70
2019-03-22T02:18:20.573Z,0.70
2019-03-22T02:21:07.374Z,1.70
2019-03-22T02:23:54.187Z,1.20
2019-03-22T02:26:41.111Z,0.60
2019-03-22T02:29:28.065Z,1.40
2019-03-22T02:31:55.656Z,2.30
2019-03-22T02:34:42.418Z,0.70
2019-03-22T02:37:29.282Z,0.70
2019-03-22T02:39:56.788Z,0.70
2019-03-22T02:42:43.875Z,0.70
2019-03-22T02:45:30.657Z,0.80
2019-03-22T02:48:17.686Z,1.10
2019-03-22T02:50:45.674Z,0.30
2019-03-22T02:53:13.225Z,0.20
2019-03-22T02:56:01.096Z,0.30
2019-03-22T02:58:48.182Z,1.20
2019-03-22T03:01:34.993Z,-0.10
2019-03-22T03:04:21.902Z,2.20
2019-03-22T03:06:49.906Z,0.50
2019-03-22T03:09:36.572Z,0.40
2019-03-22T03:12:16.035Z,0.00
2019-03-22T03:14:56.206Z,0.10
2019-03-22T03:17:36.246Z,0.20
2019-03-22T03:20:16.173Z,0.30
2019-03-22T03:22:55.602Z,0.30
2019-03-22T03:25:35.491Z,0.20
2019-03-22T03:28:15.417Z,-0.50
2019-03-22T03:30:42.776Z,0.00
2019-03-22T03:33:29.570Z,1.30
2019-03-22T03:36:16.392Z,0.30
2019-03-22T03:38:44.108Z,0.20
2019-03-22T03:41:31.271Z,0.20
2019-03-22T03:44:18.373Z,0.10
2019-03-22T03:47:05.237Z,0.10
2019-03-22T03:49:52.043Z,0.00
2019-03-22T03:52:39.582Z,-0.80
2019-03-22T03:55:27.745Z,-0.60
2019-03-22T03:58:14.566Z,-0.20
2019-03-22T04:01:01.405Z,-0.10
2019-03-22T04:03:48.310Z,-0.10
2019-03-22T04:06:35.131Z,-0.30
2019-03-22T04:09:21.980Z,-0.10
2019-03-22T04:12:01.337Z,-0.10
2019-03-22T04:14:28.761Z,-0.20
2019-03-22T04:17:15.690Z,-0.10
2019-03-22T04:19:42.993Z,0.10
2019-03-22T04:22:10.530Z,-0.20
2019-03-22T04:24:37.918Z,-0.20
2019-03-22T04:27:24.686Z,-0.20
2019-03-22T04:30:11.537Z,0.90
2019-03-22T04:32:39.002Z,-0.60
2019-03-22T04:35:25.807Z,-0.20
2019-03-22T04:38:12.857Z,0.00
2019-03-22T04:40:59.622Z,-0.20
2019-03-22T04:43:46.398Z,-0.30
2019-03-22T04:46:33.502Z,-0.30
2019-03-22T04:49:20.721Z,-0.90
2019-03-22T04:52:09.335Z,-1.30
2019-03-22T04:55:17.640Z,-0.40
2019-03-22T04:58:25.853Z,0.30
2019-03-22T05:01:12.858Z,-0.30
2019-03-22T05:04:21.787Z,-0.10
2019-03-22T05:07:08.641Z,-0.40
2019-03-22T05:09:55.406Z,-0.60
2019-03-22T05:12:34.986Z,-1.00
2019-03-22T05:15:15.126Z,-0.70
2019-03-22T05:17:55.204Z,0.30
2019-03-22T05:24:12.315Z,-0.50
2019-03-22T05:26:59.091Z,-0.30
2019-03-22T05:29:46.962Z,-0.40
2019-03-22T05:32:16.785Z,-0.70
2019-03-22T05:34:44.261Z,-0.40
2019-03-22T05:37:30.945Z,-0.30
2019-03-22T05:39:58.257Z,-0.10
2019-03-22T05:42:45.029Z,-0.10
2019-03-22T05:45:31.805Z,0.10
2019-03-22T05:48:18.593Z,0.50
2019-03-22T05:51:05.360Z,1.30
2019-03-22T05:53:52.122Z,2.80
2019-03-22T05:56:38.809Z,2.90
2019-03-22T05:59:25.601Z,3.00
2019-03-22T06:02:12.389Z,3.40
2019-03-22T06:04:59.061Z,3.60
2019-03-22T06:07:45.826Z,4.20
2019-03-22T06:10:32.859Z,4.70
2019-03-22T06:13:12.172Z,4.70
2019-03-22T06:15:52.223Z,4.80
2019-03-22T06:18:32.246Z,5.50
2019-03-22T06:21:12.383Z,4.90
2019-03-22T06:23:39.752Z,5.30
2019-03-22T06:26:26.545Z,4.50
2019-03-22T06:29:13.329Z,4.50
2019-03-22T06:32:00.176Z,5.30
2019-03-22T06:37:33.541Z,5.30
2019-03-22T06:40:20.338Z,5.50
2019-03-22T06:43:07.121Z,5.30
2019-03-22T06:45:53.932Z,6.10
2019-03-22T06:48:40.945Z,6.20
2019-03-22T06:51:08.241Z,6.40
2019-03-22T06:53:54.931Z,5.70
2019-03-22T06:56:22.257Z,6.70
2019-03-22T06:58:49.549Z,7.00
2019-03-22T07:01:16.994Z,7.30
2019-03-22T07:03:44.268Z,6.90
2019-03-22T07:06:11.845Z,6.80
2019-03-22T07:08:39.213Z,7.10
2019-03-22T07:11:06.828Z,7.00
2019-03-22T07:13:34.327Z,8.20
2019-03-22T07:16:01.718Z,8.70
2019-03-22T07:18:29.241Z,8.70
2019-03-22T07:20:56.568Z,9.00
2019-03-22T07:23:24.066Z,10.40
2019-03-22T07:25:51.473Z,10.80
2019-03-22T07:28:18.886Z,11.30
2019-03-22T07:30:46.309Z,11.30
2019-03-22T07:35:41.523Z,12.10
2019-03-22T07:38:08.910Z,12.90
2019-03-22T07:40:36.238Z,13.30
2019-03-22T07:43:03.723Z,14.10
2019-03-22T07:45:31.133Z,14.00
2019-03-22T07:47:58.435Z,13.90
2019-03-22T07:50:25.749Z,14.40
2019-03-22T07:52:53.252Z,14.30
2019-03-22T07:55:20.641Z,14.40
2019-03-22T07:57:48.074Z,15.90
2019-03-22T08:00:15.592Z,15.00
2019-03-22T08:02:43.016Z,14.90
2019-03-22T08:05:10.510Z,15.40
2019-03-22T08:07:37.928Z,16.40
2019-03-22T08:10:06.232Z,16.30
2019-03-22T08:12:33.808Z,16.60
2019-03-22T08:15:01.199Z,16.50
2019-03-22T08:17:28.504Z,16.30
2019-03-22T08:19:57.225Z,15.40
2019-03-22T08:22:24.952Z,15.10
2019-03-22T08:24:53.046Z,16.30
2019-03-22T08:27:20.420Z,17.20
2019-03-22T08:29:47.730Z,17.50
2019-03-22T08:32:15.221Z,18.20
2019-03-22T08:34:42.612Z,17.80
2019-03-22T08:37:09.998Z,18.10
2019-03-22T08:39:37.291Z,18.80
2019-03-22T08:42:04.709Z,19.50
2019-03-22T08:44:32.329Z,19.30
2019-03-22T08:46:59.790Z,18.90
2019-03-22T08:49:27.317Z,19.60
2019-03-22T08:51:54.750Z,20.20
2019-03-22T08:54:22.025Z,19.40
2019-03-22T08:56:49.559Z,19.20
2019-03-22T08:59:17.023Z,19.10
2019-03-22T09:01:44.442Z,19.00
2019-03-22T09:04:11.764Z,19.00
2019-03-22T09:06:39.401Z,19.70
2019-03-22T09:09:07.285Z,18.90
2019-03-22T09:11:34.970Z,19.30
2019-03-22T09:14:02.283Z,20.60
2019-03-22T09:16:30.903Z,20.40
2019-03-22T09:18:58.635Z,21.10
2019-03-22T09:21:25.932Z,22.00
2019-03-22T09:23:53.230Z,22.20
2019-03-22T09:26:20.608Z,20.60
2019-03-22T09:28:48.008Z,21.60
2019-03-22T09:31:15.614Z,22.00
2019-03-22T09:33:43.276Z,21.90
2019-03-22T09:36:10.810Z,22.00
2019-03-22T09:38:38.343Z,21.60
2019-03-22T09:41:06.047Z,21.30
2019-03-22T09:43:33.450Z,21.10
2019-03-22T09:46:00.834Z,21.00
2019-03-22T09:48:28.285Z,21.40
2019-03-22T09:50:55.874Z,21.80
2019-03-22T09:53:23.269Z,21.90
2019-03-22T09:55:50.891Z,22.30
2019-03-22T09:58:18.544Z,22.00
2019-03-22T10:00:48.618Z,21.70
2019-03-22T10:03:15.068Z,22.60
2019-03-22T10:05:42.490Z,23.50
2019-03-22T10:08:10.011Z,23.90
2019-03-22T10:10:37.671Z,23.30
2019-03-22T10:13:05.141Z,23.20
2019-03-22T10:15:32.566Z,23.10
2019-03-22T10:17:59.966Z,23.40
2019-03-22T10:20:27.438Z,24.60
2019-03-22T10:22:54.905Z,25.00
2019-03-22T10:25:22.372Z,25.00
2019-03-22T10:27:49.793Z,24.40
2019-03-22T10:30:17.710Z,22.90
2019-03-22T10:32:45.134Z,23.90
2019-03-22T10:35:25.014Z,23.90
2019-03-22T10:37:41.971Z,23.60
2019-03-22T10:40:09.525Z,24.30
2019-03-22T10:42:37.005Z,23.90
2019-03-22T10:45:04.726Z,23.50
2019-03-22T10:47:32.138Z,23.50
2019-03-22T10:49:59.624Z,24.00
2019-03-22T10:52:27.078Z,22.70
2019-03-22T10:54:54.463Z,23.10
2019-03-22T10:57:22.121Z,23.20
2019-03-22T10:59:49.400Z,23.00
2019-03-22T11:02:16.828Z,23.30
2019-03-22T11:04:44.202Z,23.50
2019-03-22T11:07:11.630Z,23.50
2019-03-22T11:09:38.972Z,23.20
2019-03-22T11:12:12.176Z,22.90
2019-03-22T11:14:35.739Z,23.70
2019-03-22T11:17:03.353Z,23.50
2019-03-22T11:19:30.929Z,22.90
2019-03-22T11:21:58.442Z,24.00
2019-03-22T11:24:25.849Z,24.10
2019-03-22T11:26:53.257Z,23.70
2019-03-22T11:29:20.781Z,23.80
2019-03-22T11:31:48.085Z,23.80
2019-03-22T11:34:15.873Z,24.70
2019-03-22T11:36:43.374Z,24.50
2019-03-22T11:39:15.558Z,23.40
2019-03-22T11:41:40.202Z,24.30
2019-03-22T11:44:07.705Z,25.40
2019-03-22T11:46:35.108Z,25.10
2019-03-22T11:49:02.712Z,24.20
2019-03-22T11:51:30.377Z,23.50
2019-03-22T11:53:57.904Z,22.90
2019-03-22T11:56:25.423Z,23.30
2019-03-22T11:58:52.826Z,22.60
2019-03-22T12:01:22.315Z,23.00
2019-03-22T12:03:49.479Z,23.10
2019-03-22T12:06:16.897Z,24.10
2019-03-22T12:08:44.318Z,24.90
2019-03-22T12:11:12.009Z,24.20
2019-03-22T12:13:39.636Z,23.60
2019-03-22T12:16:07.055Z,24.20
2019-03-22T12:18:34.434Z,23.70
2019-03-22T12:21:01.838Z,25.20
2019-03-22T12:23:29.521Z,25.70
2019-03-22T12:25:56.942Z,25.30
2019-03-22T12:28:24.576Z,26.30
2019-03-22T12:30:52.089Z,24.80
2019-03-22T12:33:19.720Z,25.20
2019-03-22T12:35:47.222Z,25.60
2019-03-22T12:38:14.994Z,26.70
2019-03-22T12:40:42.293Z,27.30
2019-03-22T12:43:09.786Z,25.60
2019-03-22T12:45:37.222Z,26.00
2019-03-22T12:48:04.702Z,25.70
2019-03-22T12:50:32.140Z,25.90
2019-03-22T12:52:59.537Z,26.20
2019-03-22T12:55:27.066Z,26.60
2019-03-22T12:57:54.692Z,28.00
2019-03-22T13:00:22.513Z,29.40
2019-03-22T13:02:50.166Z,28.00
2019-03-22T13:05:17.773Z,27.90
2019-03-22T13:07:45.253Z,28.70
2019-03-22T13:10:13.403Z,30.00
2019-03-22T13:12:41.230Z,30.00
2019-03-22T13:15:09.012Z,29.30
2019-03-22T13:17:36.557Z,30.00
2019-03-22T13:20:05.377Z,30.20
2019-03-22T13:22:32.983Z,30.70
2019-03-22T13:25:00.530Z,28.50
2019-03-22T13:27:28.278Z,28.70
2019-03-22T13:29:55.859Z,27.90
2019-03-22T13:32:24.087Z,28.70
2019-03-22T13:34:51.597Z,29.00
2019-03-22T13:37:19.126Z,28.00
2019-03-22T13:39:46.558Z,28.00
2019-03-22T13:42:14.211Z,28.10
2019-03-22T13:45:02.787Z,28.60
2019-03-22T13:47:30.638Z,29.00
2019-03-22T13:49:58.033Z,30.40
2019-03-22T13:52:25.600Z,29.60
2019-03-22T13:54:53.299Z,30.00
2019-03-22T13:57:20.718Z,29.90
2019-03-22T13:59:48.406Z,29.60
2019-03-22T14:02:15.943Z,29.10
2019-03-22T14:04:43.490Z,28.50
2019-03-22T14:07:11.141Z,28.40
2019-03-22T14:09:38.524Z,28.70
2019-03-22T14:12:06.105Z,27.50
2019-03-22T14:14:33.458Z,27.30
2019-03-22T14:17:01.062Z,27.60
2019-03-22T14:19:28.429Z,28.20
2019-03-22T14:21:55.887Z,30.60
2019-03-22T14:24:23.593Z,29.20
2019-03-22T14:26:51.121Z,30.80
2019-03-22T14:29:18.789Z,30.70
2019-03-22T14:31:46.179Z,29.40
2019-03-22T14:34:13.741Z,29.30
2019-03-22T14:36:41.714Z,29.50
2019-03-22T14:39:09.485Z,30.10
2019-03-22T14:41:36.798Z,30.40
2019-03-22T14:44:25.846Z,31.20
2019-03-22T14:47:12.908Z,30.60
2019-03-22T14:49:39.708Z,28.90
2019-03-22T14:52:07.128Z,29.10
2019-03-22T14:54:34.477Z,29.50
2019-03-22T14:57:01.977Z,28.40
2019-03-22T14:59:29.513Z,27.80
2019-03-22T15:01:57.007Z,29.00
2019-03-22T15:04:24.327Z,29.10
2019-03-22T15:06:51.833Z,29.30
2019-03-22T15:09:19.241Z,28.70
2019-03-22T15:11:46.642Z,29.10
2019-03-22T15:14:51.678Z,27.90
2019-03-22T15:17:41.694Z,27.20
2019-03-22T15:20:21.650Z,27.80
2019-03-22T15:23:17.764Z,30.20
2019-03-22T15:26:14.138Z,29.40
2019-03-22T15:29:07.415Z,28.90
2019-03-22T15:31:47.957Z,29.60
2019-03-22T15:34:47.166Z,29.10
2019-03-22T15:37:46.899Z,28.10
2019-03-22T15:40:14.203Z,28.70
2019-03-22T15:42:41.701Z,29.00
2019-03-22T15:45:10.203Z,28.10
2019-03-22T15:47:37.859Z,27.30
2019-03-22T15:50:06.869Z,27.70
2019-03-22T15:52:34.309Z,27.20
2019-03-22T15:55:01.853Z,26.80
2019-03-22T15:57:29.255Z,26.70
2019-03-22T15:59:56.792Z,25.90
2019-03-22T16:02:24.326Z,25.80
2019-03-22T16:04:51.825Z,26.20
2019-03-22T16:07:19.259Z,26.70
2019-03-22T16:09:46.792Z,26.50
2019-03-22T16:12:14.081Z,26.00
2019-03-22T16:14:41.589Z,25.80
2019-03-22T16:17:08.993Z,25.70
2019-03-22T16:19:36.622Z,25.20
2019-03-22T16:22:04.053Z,25.10
2019-03-22T16:24:31.462Z,24.80
2019-03-22T16:26:58.813Z,25.50
2019-03-22T16:29:26.294Z,25.20
2019-03-22T16:31:53.643Z,24.20
2019-03-22T16:34:21.053Z,24.30
2019-03-22T16:36:48.449Z,23.90
2019-03-22T16:39:15.831Z,22.50
2019-03-22T16:41:43.242Z,21.40
2019-03-22T16:44:10.636Z,20.50
2019-03-22T16:46:37.957Z,19.90
2019-03-22T16:49:05.292Z,19.40
2019-03-22T16:51:32.751Z,19.10
2019-03-22T16:54:00.280Z,18.90
2019-03-22T16:56:27.693Z,18.70
2019-03-22T16:58:55.101Z,18.50
2019-03-22T17:01:22.458Z,18.30
2019-03-22T17:03:49.942Z,18.00
2019-03-22T17:06:17.447Z,17.80
2019-03-22T17:08:44.869Z,17.70
2019-03-22T17:11:12.667Z,17.50
2019-03-22T17:13:40.218Z,17.30
2019-03-22T17:16:07.742Z,17.20
2019-03-22T17:18:35.364Z,17.10
2019-03-22T17:21:02.910Z,16.90
2019-03-22T17:23:30.498Z,16.70
2019-03-22T17:25:58.155Z,16.50
2019-03-22T17:28:25.602Z,16.30
2019-03-22T17:30:53.004Z,16.20
2019-03-22T17:33:20.522Z,16.00
2019-03-22T17:35:47.818Z,15.80
2019-03-22T17:38:16.198Z,15.50
2019-03-22T17:40:43.521Z,15.30
2019-03-22T17:43:10.909Z,15.00
2019-03-22T17:45:38.269Z,14.80
2019-03-22T17:48:05.775Z,14.70
2019-03-22T17:50:33.196Z,14.60
2019-03-22T17:53:00.713Z,14.40
2019-03-22T17:55:28.013Z,14.20
2019-03-22T17:57:55.428Z,13.80
2019-03-22T18:00:23.917Z,12.30
2019-03-22T18:02:51.464Z,13.60
2019-03-22T18:05:18.744Z,13.40
2019-03-22T18:07:46.162Z,13.40
2019-03-22T18:10:13.693Z,13.20
2019-03-22T18:12:41.085Z,13.00
2019-03-22T18:15:10.056Z,13.00
2019-03-22T18:17:37.576Z,12.90
2019-03-22T18:20:07.272Z,12.80
2019-03-22T18:22:34.818Z,12.70
2019-03-22T18:25:02.300Z,12.60
2019-03-22T18:27:29.601Z,12.50
2019-03-22T18:29:57.068Z,12.30
2019-03-22T18:32:24.538Z,12.20
2019-03-22T18:34:51.897Z,12.10
2019-03-22T18:37:19.231Z,12.10
2019-03-22T18:39:46.633Z,11.90
2019-03-22T18:42:14.057Z,11.80
2019-03-22T18:44:41.361Z,11.70
2019-03-22T18:47:08.870Z,11.50
2019-03-22T18:49:36.288Z,11.40
2019-03-22T18:52:03.863Z,11.30
2019-03-22T18:54:31.261Z,11.20
2019-03-22T18:56:58.585Z,11.20
2019-03-22T18:59:25.908Z,11.10
2019-03-22T19:01:53.806Z,11.10
2019-03-22T19:04:21.323Z,11.10
2019-03-22T19:06:48.761Z,11.10
2019-03-22T19:09:16.156Z,11.00
2019-03-22T19:11:43.965Z,10.90
2019-03-22T19:14:11.349Z,10.70
2019-03-22T19:16:38.795Z,10.50
2019-03-22T19:19:06.184Z,10.40
2019-03-22T19:21:33.869Z,10.30
2019-03-22T19:26:30.516Z,10.10
2019-03-22T19:28:58.126Z,9.90
2019-03-22T19:31:25.545Z,9.80
2019-03-22T19:33:53.243Z,9.80
2019-03-22T19:36:20.669Z,9.70
2019-03-22T19:38:48.245Z,9.70
2019-03-22T19:41:15.552Z,9.80
2019-03-22T19:43:42.972Z,9.80
2019-03-22T19:46:10.266Z,9.70
2019-03-22T19:48:37.684Z,9.80
2019-03-22T19:51:05.112Z,9.70
2019-03-22T19:53:32.556Z,9.50
2019-03-22T19:55:59.948Z,9.40
2019-03-22T19:58:27.288Z,9.20
2019-03-22T20:00:54.898Z,9.20
2019-03-22T20:03:22.300Z,9.10
2019-03-22T20:05:49.867Z,8.90
2019-03-22T20:08:17.177Z,8.90
2019-03-22T20:10:44.780Z,9.10
2019-03-22T20:13:12.289Z,9.00
2019-03-22T20:15:39.998Z,8.90
2019-03-22T20:18:07.612Z,8.70
2019-03-22T20:20:36.224Z,8.70
2019-03-22T20:23:03.803Z,8.70
2019-03-22T20:25:31.230Z,8.70
2019-03-22T20:27:59.002Z,8.50
2019-03-22T20:30:26.597Z,8.40
2019-03-22T20:32:54.395Z,8.50
2019-03-22T20:35:21.915Z,8.50
2019-03-22T20:37:49.553Z,8.40
2019-03-22T20:40:17.813Z,8.30
2019-03-22T20:42:45.346Z,8.30
2019-03-22T20:45:23.266Z,8.20
2019-03-22T20:47:42.330Z,8.10
2019-03-22T20:50:10.257Z,8.00
2019-03-22T20:52:38.033Z,8.00
2019-03-22T20:55:07.306Z,7.80
2019-03-22T20:57:34.901Z,7.80
2019-03-22T21:00:02.924Z,7.80
2019-03-22T21:02:30.574Z,7.70
2019-03-22T21:04:57.908Z,7.70
2019-03-22T21:07:25.578Z,7.60
2019-03-22T21:09:53.102Z,7.70
2019-03-22T21:12:20.673Z,7.70
2019-03-22T21:14:47.993Z,7.70
2019-03-22T21:17:16.205Z,7.60
2019-03-22T21:19:43.842Z,7.50
2019-03-22T21:22:11.256Z,7.50
2019-03-22T21:24:38.692Z,7.40
2019-03-22T21:27:15.153Z,7.30
2019-03-22T21:29:43.791Z,7.20
2019-03-22T21:32:05.016Z,7.20
2019-03-22T21:34:32.332Z,7.10
2019-03-22T21:36:59.784Z,7.70
2019-03-22T21:39:27.220Z,7.00
2019-03-22T21:41:54.801Z,6.90
2019-03-22T21:44:22.323Z,6.90
2019-03-22T21:46:49.801Z,6.90
2019-03-22T21:49:17.227Z,7.00
2019-03-22T21:51:44.783Z,7.00
2019-03-22T21:54:12.132Z,7.60
2019-03-22T21:56:39.574Z,6.90
2019-03-22T21:59:07.079Z,6.90
2019-03-22T22:01:34.606Z,6.80
2019-03-22T22:04:02.014Z,6.70
2019-03-22T22:06:29.472Z,6.70
2019-03-22T22:08:57.164Z,6.80
2019-03-22T22:11:24.499Z,6.50
2019-03-22T22:13:52.081Z,6.40
2019-03-22T22:16:19.624Z,6.40
2019-03-22T22:18:47.064Z,6.30
2019-03-22T22:21:14.800Z,6.20
2019-03-22T22:23:42.259Z,6.20
2019-03-22T22:26:09.782Z,6.20
2019-03-22T22:28:37.424Z,6.20
2019-03-22T22:31:05.252Z,6.00
2019-03-22T22:33:32.818Z,6.00
2019-03-22T22:36:00.509Z,6.00
2019-03-22T22:38:27.981Z,5.90
2019-03-22T22:40:55.624Z,5.90
2019-03-22T22:43:23.001Z,5.80
2019-03-22T22:45:50.445Z,5.70
2019-03-22T22:48:17.993Z,5.70
2019-03-22T22:50:45.642Z,5.70
2019-03-22T22:53:13.628Z,5.60
2019-03-22T22:55:41.526Z,6.00
2019-03-22T22:58:11.506Z,5.60
2019-03-22T23:00:39.574Z,5.90
2019-03-22T23:03:07.454Z,5.80
2019-03-22T23:05:34.976Z,5.50
2019-03-22T23:08:02.583Z,5.50
2019-03-22T23:10:30.039Z,5.50
2019-03-22T23:12:57.631Z,5.40
2019-03-22T23:15:25.680Z,5.30
2019-03-22T23:17:53.248Z,5.30
2019-03-22T23:20:22.353Z,5.20
2019-03-22T23:22:50.311Z,5.20
2019-03-22T23:25:18.372Z,5.20
2019-03-22T23:27:45.733Z,5.20
2019-03-22T23:30:13.523Z,5.10
2019-03-22T23:32:41.277Z,5.10
2019-03-22T23:35:08.766Z,5.00
2019-03-22T23:37:36.221Z,4.90
2019-03-22T23:40:04.437Z,4.90
2019-03-22T23:42:31.976Z,4.90
2019-03-22T23:45:00.767Z,4.90
2019-03-22T23:47:28.334Z,4.80
2019-03-22T23:49:55.676Z,4.80
2019-03-22T23:52:22.989Z,4.70
2019-03-22T23:54:50.671Z,4.70
2019-03-22T23:57:18.069Z,4.60
2019-03-22T23:59:45.488Z,4.60
